BUCHANAN DAM (BUC)

Elevation: 450' · CHOWCHILLA R basin · Operator: US Army Corps of Engineers

Provisional data, subject to change.
Query executed Monday at 21:55:36   clock

Select a sensor type for a plot of data.
Note: Reservoir Flows are daily averages.

Earlier

Date RES ELE    STORAGE    RES CHG    TOC STO    ABV TOC    OUTFLOW    INFLOW    PPT INC    TEMP MN    TEMP MX   
 FEET   AF   AF   AF   AF   CFS   CFS   INCHES   DEG F   DEG F  
04/03/2016 513.77 47586 137 125144 -77558 3 78 -- 11 26
04/04/2016 513.89 47713 127 125812 -78099 3 73 -- 9 26
04/05/2016 514.00 47829 116 126516 -78687 3 67 -- 9 28
04/06/2016 514.11 47946 117 127145 -79199 2 67 -- 11 31
04/07/2016 514.22 48062 116 127837 -79775 2 65 -- 14 26
04/08/2016 514.36 48211 149 128014 -79803 2 82 -- 13 23
04/09/2016 515.98 49943 1732 124820 -74877 6 882 -- 13 20
04/10/2016 516.85 50884 941 125518 -74634 7 485 -- 13 21
04/11/2016 517.26 51330 446 126216 -74886 6 236 -- 12 22
04/12/2016 517.56 51658 328 126888 -75230 3 175 -- 11 23
04/13/2016 517.80 51920 262 127670 -75750 3 141 -- 9 23
04/14/2016 517.99 52129 209 128437 -76308 3 115 -- 10 19
04/15/2016 518.18 52343 214 129200 43289 3 117 -- 6 22
04/16/2016 518.42 52607 264 129894 42595 3 143 -- 8 26
04/17/2016 518.62 52822 215 130549 -77727 3 119 -- 11 31
04/18/2016 518.76 52977 155 131163 -78192 2 88 -- 12 32
04/19/2016 518.89 53120 143 131900 -78786 2 81 -- 12 30
04/20/2016 519.01 53253 133 132531 -79278 2 76 -- 11 29
04/21/2016 519.12 53375 122 133231 -79856 2 71 -- 10 28
04/22/2016 519.25 53519 144 133482 -79963 2 78 -- 11 21
04/23/2016 519.40 53686 167 134027 -80341 2 93 -- 8 22
04/24/2016 519.53 53830 144 134748 -80918 2 80 -- 10 23
04/25/2016 519.64 53952 122 135424 -81472 1 70 -- 7 20
04/26/2016 519.74 54064 112 136070 -82006 1 64 -- 6 22
04/27/2016 519.84 54175 111 136765 -82590 1 62 -- 8 22
04/28/2016 519.93 54276 101 137459 -83183 1 58 -- 6 24
04/29/2016 520.03 54387 111 138018 -83631 1 64 -- 10 26
04/30/2016 520.10 54465 78 138684 -84219 1 48 -- 10 26
05/01/2016 520.19 54566 101 139240 -84674 1 60 -- 11 31
05/02/2016 -- -- -- -- -- -- -- -- -- --

Later | Latest

Warning! This data is preliminary and subject to revision.

Show BUC Map | Plot BUC Data | 1 Month BUC Data | Real-Time BUC Data | BUC Info